sensor_id;sensor_type;location;lat;lon;timestamp;pressure;altitude;pressure_sealevel;temperature;humidity
70302;BME280;57706;56.326;43.882;2022-11-20T00:01:23;101345.25;;;-5.37;64.99
70302;BME280;57706;56.326;43.882;2022-11-20T00:03:51;101349.22;;;-5.23;65.92
70302;BME280;57706;56.326;43.882;2022-11-20T00:06:18;101353.97;;;-5.08;66.26
70302;BME280;57706;56.326;43.882;2022-11-20T00:08:45;101353.13;;;-5.08;66.17
70302;BME280;57706;56.326;43.882;2022-11-20T00:11:19;101353.91;;;-5.05;66.46
70302;BME280;57706;56.326;43.882;2022-11-20T00:13:47;101344.56;;;-5.07;66.41
70302;BME280;57706;56.326;43.882;2022-11-20T00:16:16;101342.97;;;-5.12;65.21
70302;BME280;57706;56.326;43.882;2022-11-20T00:18:42;101342.69;;;-5.37;63.75
70302;BME280;57706;56.326;43.882;2022-11-20T00:21:20;101338.81;;;-5.54;64.98
70302;BME280;57706;56.326;43.882;2022-11-20T00:23:47;101333.53;;;-5.47;65.36
70302;BME280;57706;56.326;43.882;2022-11-20T00:26:15;101339.47;;;-5.45;65.30
70302;BME280;57706;56.326;43.882;2022-11-20T00:28:42;101328.41;;;-5.47;65.00
70302;BME280;57706;56.326;43.882;2022-11-20T00:31:11;101334.56;;;-5.55;64.91
70302;BME280;57706;56.326;43.882;2022-11-20T00:33:37;101339.75;;;-5.58;65.38
70302;BME280;57706;56.326;43.882;2022-11-20T00:36:08;101326.16;;;-5.60;65.99
70302;BME280;57706;56.326;43.882;2022-11-20T00:38:35;101336.41;;;-5.60;65.75
70302;BME280;57706;56.326;43.882;2022-11-20T00:41:03;101327.97;;;-5.65;65.31
70302;BME280;57706;56.326;43.882;2022-11-20T00:43:29;101328.91;;;-5.69;66.10
70302;BME280;57706;56.326;43.882;2022-11-20T00:46:05;101326.97;;;-5.59;66.20
70302;BME280;57706;56.326;43.882;2022-11-20T00:48:32;101322.88;;;-5.67;65.88
70302;BME280;57706;56.326;43.882;2022-11-20T00:51:19;101324.59;;;-5.67;66.86
70302;BME280;57706;56.326;43.882;2022-11-20T00:53:45;101333.44;;;-5.82;66.11
70302;BME280;57706;56.326;43.882;2022-11-20T00:56:14;101331.41;;;-5.66;66.71
70302;BME280;57706;56.326;43.882;2022-11-20T00:58:42;101333.13;;;-5.67;67.03
70302;BME280;57706;56.326;43.882;2022-11-20T01:01:13;101338.00;;;-5.56;66.39
70302;BME280;57706;56.326;43.882;2022-11-20T01:03:48;101327.94;;;-5.63;65.35
70302;BME280;57706;56.326;43.882;2022-11-20T01:06:24;101325.53;;;-5.71;65.39
70302;BME280;57706;56.326;43.882;2022-11-20T01:08:53;101324.81;;;-5.76;66.81
70302;BME280;57706;56.326;43.882;2022-11-20T01:11:27;101315.38;;;-5.74;66.62
70302;BME280;57706;56.326;43.882;2022-11-20T01:13:55;101320.25;;;-5.63;65.49
70302;BME280;57706;56.326;43.882;2022-11-20T01:16:32;101309.44;;;-5.76;65.82
70302;BME280;57706;56.326;43.882;2022-11-20T01:19:00;101312.91;;;-5.79;66.96
70302;BME280;57706;56.326;43.882;2022-11-20T01:21:32;101311.25;;;-5.82;66.74
70302;BME280;57706;56.326;43.882;2022-11-20T01:23:59;101309.72;;;-5.89;66.26
70302;BME280;57706;56.326;43.882;2022-11-20T01:26:31;101316.59;;;-5.91;67.51
70302;BME280;57706;56.326;43.882;2022-11-20T01:29:21;101312.81;;;-5.74;67.77
70302;BME280;57706;56.326;43.882;2022-11-20T01:31:47;101316.03;;;-5.66;68.33
70302;BME280;57706;56.326;43.882;2022-11-20T01:34:19;101313.72;;;-5.77;66.76
70302;BME280;57706;56.326;43.882;2022-11-20T01:37:03;101311.97;;;-5.75;66.06
70302;BME280;57706;56.326;43.882;2022-11-20T01:39:29;101320.47;;;-5.73;67.70
70302;BME280;57706;56.326;43.882;2022-11-20T01:41:55;101327.97;;;-5.65;67.96
70302;BME280;57706;56.326;43.882;2022-11-20T01:44:58;101341.38;;;-5.54;67.71
70302;BME280;57706;56.326;43.882;2022-11-20T01:47:45;101340.47;;;-5.53;67.15
70302;BME280;57706;56.326;43.882;2022-11-20T01:55:46;101333.19;;;-5.68;66.78
70302;BME280;57706;56.326;43.882;2022-11-20T01:58:13;101318.72;;;-5.72;67.10
70302;BME280;57706;56.326;43.882;2022-11-20T02:00:40;101321.44;;;-5.78;66.69
70302;BME280;57706;56.326;43.882;2022-11-20T02:03:09;101325.00;;;-5.86;65.77
70302;BME280;57706;56.326;43.882;2022-11-20T02:08:33;101335.22;;;-5.86;66.47
70302;BME280;57706;56.326;43.882;2022-11-20T02:11:00;101321.75;;;-5.94;65.53
70302;BME280;57706;56.326;43.882;2022-11-20T02:13:26;101316.16;;;-6.10;66.00
70302;BME280;57706;56.326;43.882;2022-11-20T02:16:13;101308.91;;;-6.30;66.11
70302;BME280;57706;56.326;43.882;2022-11-20T02:18:40;101303.84;;;-6.33;67.14
70302;BME280;57706;56.326;43.882;2022-11-20T02:21:58;101305.47;;;-6.29;67.23
70302;BME280;57706;56.326;43.882;2022-11-20T02:24:02;101292.16;;;-6.47;66.89
70302;BME280;57706;56.326;43.882;2022-11-20T02:26:31;101301.38;;;-6.38;67.58
70302;BME280;57706;56.326;43.882;2022-11-20T02:28:59;101300.47;;;-6.36;68.19
70302;BME280;57706;56.326;43.882;2022-11-20T02:31:26;101288.34;;;-6.27;68.08
70302;BME280;57706;56.326;43.882;2022-11-20T02:33:58;101301.47;;;-6.43;66.59
70302;BME280;57706;56.326;43.882;2022-11-20T02:36:26;101293.03;;;-6.48;66.77
70302;BME280;57706;56.326;43.882;2022-11-20T02:38:53;101300.59;;;-6.42;67.23
70302;BME280;57706;56.326;43.882;2022-11-20T02:41:19;101294.59;;;-6.39;68.21
70302;BME280;57706;56.326;43.882;2022-11-20T02:43:45;101298.94;;;-6.90;67.52
70302;BME280;57706;56.326;43.882;2022-11-20T02:46:10;101310.81;;;-6.87;67.83
70302;BME280;57706;56.326;43.882;2022-11-20T02:48:36;101306.81;;;-7.01;67.54
70302;BME280;57706;56.326;43.882;2022-11-20T02:51:21;101316.44;;;-6.67;69.33
70302;BME280;57706;56.326;43.882;2022-11-20T02:53:47;101302.75;;;-6.64;67.99
70302;BME280;57706;56.326;43.882;2022-11-20T02:56:13;101305.22;;;-6.61;68.35
70302;BME280;57706;56.326;43.882;2022-11-20T02:58:39;101307.81;;;-6.63;68.45
70302;BME280;57706;56.326;43.882;2022-11-20T03:01:05;101316.09;;;-6.50;69.37
70302;BME280;57706;56.326;43.882;2022-11-20T03:03:31;101321.00;;;-6.39;69.30
70302;BME280;57706;56.326;43.882;2022-11-20T03:05:58;101311.06;;;-6.54;68.85
70302;BME280;57706;56.326;43.882;2022-11-20T03:08:24;101310.44;;;-6.67;67.08
70302;BME280;57706;56.326;43.882;2022-11-20T03:10:50;101320.16;;;-6.86;67.69
70302;BME280;57706;56.326;43.882;2022-11-20T03:13:16;101317.44;;;-6.77;67.86
70302;BME280;57706;56.326;43.882;2022-11-20T03:15:42;101316.63;;;-6.79;67.50
70302;BME280;57706;56.326;43.882;2022-11-20T03:18:08;101313.19;;;-6.78;66.52
70302;BME280;57706;56.326;43.882;2022-11-20T03:20:34;101311.34;;;-6.70;68.15
70302;BME280;57706;56.326;43.882;2022-11-20T03:23:00;101311.53;;;-6.79;67.84
70302;BME280;57706;56.326;43.882;2022-11-20T03:25:27;101302.09;;;-6.77;66.41
70302;BME280;57706;56.326;43.882;2022-11-20T03:27:54;101309.50;;;-6.61;66.43
70302;BME280;57706;56.326;43.882;2022-11-20T03:30:19;101305.25;;;-6.63;66.03
70302;BME280;57706;56.326;43.882;2022-11-20T03:32:45;101300.13;;;-6.63;66.58
70302;BME280;57706;56.326;43.882;2022-11-20T03:35:11;101299.16;;;-6.55;67.23
70302;BME280;57706;56.326;43.882;2022-11-20T03:37:37;101295.09;;;-6.67;65.64
70302;BME280;57706;56.326;43.882;2022-11-20T03:40:03;101291.34;;;-6.95;66.04
70302;BME280;57706;56.326;43.882;2022-11-20T03:42:29;101297.03;;;-6.79;67.24
70302;BME280;57706;56.326;43.882;2022-11-20T03:45:11;101292.47;;;-6.63;66.83
70302;BME280;57706;56.326;43.882;2022-11-20T03:47:37;101287.78;;;-6.86;66.32
70302;BME280;57706;56.326;43.882;2022-11-20T03:50:22;101288.78;;;-6.95;66.44
70302;BME280;57706;56.326;43.882;2022-11-20T03:52:47;101293.50;;;-7.22;66.79
70302;BME280;57706;56.326;43.882;2022-11-20T03:55:13;101294.88;;;-7.02;66.93
70302;BME280;57706;56.326;43.882;2022-11-20T03:57:39;101289.16;;;-6.68;67.80
70302;BME280;57706;56.326;43.882;2022-11-20T04:00:06;101300.00;;;-6.55;68.02
70302;BME280;57706;56.326;43.882;2022-11-20T04:02:31;101290.56;;;-6.53;65.54
70302;BME280;57706;56.326;43.882;2022-11-20T04:04:57;101295.81;;;-6.60;66.22
70302;BME280;57706;56.326;43.882;2022-11-20T04:07:23;101298.22;;;-6.51;66.29
70302;BME280;57706;56.326;43.882;2022-11-20T04:09:49;101296.41;;;-6.46;67.26
70302;BME280;57706;56.326;43.882;2022-11-20T04:12:15;101302.47;;;-6.50;65.97
70302;BME280;57706;56.326;43.882;2022-11-20T04:14:41;101309.09;;;-6.40;65.89
70302;BME280;57706;56.326;43.882;2022-11-20T04:17:07;101310.06;;;-6.45;66.87
70302;BME280;57706;56.326;43.882;2022-11-20T04:19:33;101303.97;;;-6.40;67.27
70302;BME280;57706;56.326;43.882;2022-11-20T04:21:58;101310.66;;;-6.32;66.75
70302;BME280;57706;56.326;43.882;2022-11-20T04:24:24;101304.59;;;-6.28;66.12
70302;BME280;57706;56.326;43.882;2022-11-20T04:26:51;101291.78;;;-6.28;66.18
70302;BME280;57706;56.326;43.882;2022-11-20T04:29:17;101288.34;;;-6.27;66.83
70302;BME280;57706;56.326;43.882;2022-11-20T04:31:43;101296.13;;;-6.32;66.02
70302;BME280;57706;56.326;43.882;2022-11-20T04:34:11;101298.78;;;-6.37;64.98
70302;BME280;57706;56.326;43.882;2022-11-20T04:36:37;101297.88;;;-6.34;66.49
70302;BME280;57706;56.326;43.882;2022-11-20T04:39:05;101292.31;;;-6.12;67.45
70302;BME280;57706;56.326;43.882;2022-11-20T04:41:35;101284.50;;;-6.47;64.53
70302;BME280;57706;56.326;43.882;2022-11-20T04:44:05;101288.69;;;-6.43;65.33
70302;BME280;57706;56.326;43.882;2022-11-20T04:46:37;101284.19;;;-6.77;65.54
70302;BME280;57706;56.326;43.882;2022-11-20T04:49:03;101284.19;;;-6.77;65.48
70302;BME280;57706;56.326;43.882;2022-11-20T04:51:47;101292.63;;;-6.72;65.53
70302;BME280;57706;56.326;43.882;2022-11-20T04:54:13;101293.25;;;-6.60;66.55
70302;BME280;57706;56.326;43.882;2022-11-20T04:56:39;101295.06;;;-6.64;65.59
70302;BME280;57706;56.326;43.882;2022-11-20T04:59:05;101284.94;;;-6.70;65.64
70302;BME280;57706;56.326;43.882;2022-11-20T05:01:31;101287.94;;;-6.48;66.88
70302;BME280;57706;56.326;43.882;2022-11-20T05:03:57;101288.69;;;-6.43;65.02
70302;BME280;57706;56.326;43.882;2022-11-20T05:06:23;101281.81;;;-6.41;66.23
70302;BME280;57706;56.326;43.882;2022-11-20T05:08:49;101281.94;;;-6.47;66.16
70302;BME280;57706;56.326;43.882;2022-11-20T05:11:20;101289.72;;;-6.53;64.62
70302;BME280;57706;56.326;43.882;2022-11-20T05:13:47;101290.38;;;-6.43;64.77
70302;BME280;57706;56.326;43.882;2022-11-20T05:16:15;101293.34;;;-6.64;65.18
70302;BME280;57706;56.326;43.882;2022-11-20T05:18:42;101292.53;;;-6.66;64.88
70302;BME280;57706;56.326;43.882;2022-11-20T05:21:09;101287.13;;;-6.50;64.45
70302;BME280;57706;56.326;43.882;2022-11-20T05:23:35;101288.81;;;-6.49;65.33
70302;BME280;57706;56.326;43.882;2022-11-20T05:26:01;101299.47;;;-6.28;65.71
70302;BME280;57706;56.326;43.882;2022-11-20T05:28:29;101288.13;;;-6.16;64.85
70302;BME280;57706;56.326;43.882;2022-11-20T05:30:55;101283.00;;;-6.15;65.49
70302;BME280;57706;56.326;43.882;2022-11-20T05:33:41;101280.88;;;-5.97;65.46
70302;BME280;57706;56.326;43.882;2022-11-20T05:36:08;101290.19;;;-6.32;63.67
70302;BME280;57706;56.326;43.882;2022-11-20T05:38:34;101281.03;;;-6.03;65.48
70302;BME280;57706;56.326;43.882;2022-11-20T05:41:20;101278.34;;;-5.99;64.90
70302;BME280;57706;56.326;43.882;2022-11-20T05:43:47;101278.16;;;-5.89;65.17
70302;BME280;57706;56.326;43.882;2022-11-20T05:46:15;101288.28;;;-5.85;63.83
70302;BME280;57706;56.326;43.882;2022-11-20T05:48:43;101281.03;;;-6.03;64.23
70302;BME280;57706;56.326;43.882;2022-11-20T05:51:11;101284.22;;;-5.95;65.01
70302;BME280;57706;56.326;43.882;2022-11-20T05:53:37;101283.69;;;-6.08;63.53
70302;BME280;57706;56.326;43.882;2022-11-20T05:56:11;101285.91;;;-5.94;64.06
70302;BME280;57706;56.326;43.882;2022-11-20T05:58:39;101285.91;;;-5.94;63.93
70302;BME280;57706;56.326;43.882;2022-11-20T06:01:11;101285.72;;;-5.85;64.90
70302;BME280;57706;56.326;43.882;2022-11-20T06:03:38;101294.00;;;-5.73;64.35
70302;BME280;57706;56.326;43.882;2022-11-20T06:06:05;101288.81;;;-5.70;63.58
70302;BME280;57706;56.326;43.882;2022-11-20T06:08:31;101287.91;;;-5.69;64.38
70302;BME280;57706;56.326;43.882;2022-11-20T06:10:58;101285.66;;;-5.82;63.77
70302;BME280;57706;56.326;43.882;2022-11-20T06:13:24;101287.19;;;-5.73;63.22
70302;BME280;57706;56.326;43.882;2022-11-20T06:15:50;101288.53;;;-5.58;65.10
70302;BME280;57706;56.326;43.882;2022-11-20T06:18:17;101290.47;;;-5.69;64.14
70302;BME280;57706;56.326;43.882;2022-11-20T06:20:43;101286.34;;;-5.75;63.95
70302;BME280;57706;56.326;43.882;2022-11-20T06:23:10;101288.75;;;-5.67;63.74
70302;BME280;57706;56.326;43.882;2022-11-20T06:25:42;101287.44;;;-5.85;62.80
70302;BME280;57706;56.326;43.882;2022-11-20T06:28:08;101284.03;;;-5.86;62.85
70302;BME280;57706;56.326;43.882;2022-11-20T06:30:35;101283.75;;;-5.73;62.76
70302;BME280;57706;56.326;43.882;2022-11-20T06:33:01;101281.78;;;-5.62;63.23
70302;BME280;57706;56.326;43.882;2022-11-20T06:35:27;101278.56;;;-5.70;63.09
70302;BME280;57706;56.326;43.882;2022-11-20T06:37:53;101287.84;;;-5.64;62.72
70302;BME280;57706;56.326;43.882;2022-11-20T06:40:19;101288.88;;;-5.37;63.07
70302;BME280;57706;56.326;43.882;2022-11-20T06:42:44;101280.84;;;-5.58;61.94
70302;BME280;57706;56.326;43.882;2022-11-20T06:45:10;101283.63;;;-5.32;62.39
70302;BME280;57706;56.326;43.882;2022-11-20T06:47:36;101284.63;;;-5.38;61.50
70302;BME280;57706;56.326;43.882;2022-11-20T06:50:02;101277.44;;;-5.23;61.77
70302;BME280;57706;56.326;43.882;2022-11-20T06:52:29;101280.00;;;-4.89;62.82
70302;BME280;57706;56.326;43.882;2022-11-20T06:54:55;101272.28;;;-4.57;62.89
70302;BME280;57706;56.326;43.882;2022-11-20T06:57:20;101283.41;;;-4.57;60.56
70302;BME280;57706;56.326;43.882;2022-11-20T06:59:46;101290.94;;;-4.84;60.59
70302;BME280;57706;56.326;43.882;2022-11-20T07:02:12;101299.91;;;-4.99;60.24
70302;BME280;57706;56.326;43.882;2022-11-20T07:04:38;101291.41;;;-5.01;60.13
70302;BME280;57706;56.326;43.882;2022-11-20T07:07:04;101296.59;;;-4.71;61.83
70302;BME280;57706;56.326;43.882;2022-11-20T07:09:32;101294.84;;;-4.68;61.01
70302;BME280;57706;56.326;43.882;2022-11-20T07:11:58;101293.25;;;-4.73;59.65
70302;BME280;57706;56.326;43.882;2022-11-20T07:14:23;101288.00;;;-4.70;59.95
70302;BME280;57706;56.326;43.882;2022-11-20T07:16:49;101281.28;;;-4.42;61.54
70302;BME280;57706;56.326;43.882;2022-11-20T07:19:15;101277.16;;;-4.48;59.10
70302;BME280;57706;56.326;43.882;2022-11-20T07:21:41;101285.25;;;-4.62;61.12
70302;BME280;57706;56.326;43.882;2022-11-20T07:24:07;101283.50;;;-4.61;61.34
70302;BME280;57706;56.326;43.882;2022-11-20T07:26:33;101295.41;;;-4.27;61.29
70302;BME280;57706;56.326;43.882;2022-11-20T07:28:59;101302.56;;;-4.38;60.09
70302;BME280;57706;56.326;43.882;2022-11-20T07:31:24;101300.25;;;-4.48;60.46
70302;BME280;57706;56.326;43.882;2022-11-20T07:33:50;101311.16;;;-4.39;60.06
70302;BME280;57706;56.326;43.882;2022-11-20T07:36:16;101315.97;;;-4.27;61.25
70302;BME280;57706;56.326;43.882;2022-11-20T07:38:42;101329.47;;;-4.22;62.24
70302;BME280;57706;56.326;43.882;2022-11-20T07:41:08;101328.41;;;-4.45;59.65
70302;BME280;57706;56.326;43.882;2022-11-20T07:43:33;101330.97;;;-4.45;61.84
70302;BME280;57706;56.326;43.882;2022-11-20T07:45:59;101330.84;;;-4.72;59.68
70302;BME280;57706;56.326;43.882;2022-11-20T07:48:26;101335.13;;;-4.72;62.22
70302;BME280;57706;56.326;43.882;2022-11-20T07:50:55;101338.91;;;-4.54;61.98
70302;BME280;57706;56.326;43.882;2022-11-20T07:53:22;101341.97;;;-4.39;61.68
70302;BME280;57706;56.326;43.882;2022-11-20T07:55:49;101333.59;;;-4.46;61.60
70302;BME280;57706;56.326;43.882;2022-11-20T07:58:15;101326.28;;;-4.60;59.92
70302;BME280;57706;56.326;43.882;2022-11-20T08:00:41;101335.97;;;-4.72;61.18
70302;BME280;57706;56.326;43.882;2022-11-20T08:03:07;101341.41;;;-4.51;61.38
70302;BME280;57706;56.326;43.882;2022-11-20T08:05:33;101336.97;;;-4.46;61.74
70302;BME280;57706;56.326;43.882;2022-11-20T08:07:59;101343.56;;;-4.35;60.59
70302;BME280;57706;56.326;43.882;2022-11-20T08:10:25;101338.91;;;-4.87;60.25
70302;BME280;57706;56.326;43.882;2022-11-20T08:12:52;101335.84;;;-4.67;61.39
70302;BME280;57706;56.326;43.882;2022-11-20T08:15:38;101345.41;;;-4.40;60.97
70302;BME280;57706;56.326;43.882;2022-11-20T08:18:05;101344.56;;;-4.41;61.20
70302;BME280;57706;56.326;43.882;2022-11-20T08:20:32;101351.19;;;-4.32;61.02
70302;BME280;57706;56.326;43.882;2022-11-20T08:23:04;101350.22;;;-4.61;59.75
70302;BME280;57706;56.326;43.882;2022-11-20T08:25:32;101350.56;;;-4.42;60.57
70302;BME280;57706;56.326;43.882;2022-11-20T08:28:00;101343.34;;;-4.28;61.66
70302;BME280;57706;56.326;43.882;2022-11-20T08:30:27;101348.50;;;-3.97;61.19
70302;BME280;57706;56.326;43.882;2022-11-20T08:32:53;101351.72;;;-3.91;60.83
70302;BME280;57706;56.326;43.882;2022-11-20T08:35:21;101356.22;;;-3.97;61.17
70302;BME280;57706;56.326;43.882;2022-11-20T08:37:47;101364.22;;;-4.40;59.68
70302;BME280;57706;56.326;43.882;2022-11-20T08:40:14;101364.91;;;-4.33;60.44
70302;BME280;57706;56.326;43.882;2022-11-20T08:42:47;101367.72;;;-4.43;60.69
70302;BME280;57706;56.326;43.882;2022-11-20T08:45:13;101368.97;;;-4.26;61.80
70302;BME280;57706;56.326;43.882;2022-11-20T08:47:39;101374.13;;;-4.26;61.43
70302;BME280;57706;56.326;43.882;2022-11-20T08:50:05;101370.06;;;-4.35;58.93
70302;BME280;57706;56.326;43.882;2022-11-20T08:52:31;101370.97;;;-4.37;60.44
70302;BME280;57706;56.326;43.882;2022-11-20T08:54:57;101370.81;;;-4.31;60.94
70302;BME280;57706;56.326;43.882;2022-11-20T08:57:23;101379.06;;;-4.20;60.73
70302;BME280;57706;56.326;43.882;2022-11-20T08:59:49;101362.59;;;-4.12;61.07
70302;BME280;57706;56.326;43.882;2022-11-20T09:02:14;101356.50;;;-4.08;60.58
70302;BME280;57706;56.326;43.882;2022-11-20T09:04:40;101350.44;;;-4.06;60.98
70302;BME280;57706;56.326;43.882;2022-11-20T09:07:06;101346.31;;;-4.11;59.91
70302;BME280;57706;56.326;43.882;2022-11-20T09:09:32;101340.94;;;-4.02;61.24
70302;BME280;57706;56.326;43.882;2022-11-20T09:11:58;101346.41;;;-4.15;58.81
70302;BME280;57706;56.326;43.882;2022-11-20T09:14:24;101348.78;;;-4.38;60.80
70302;BME280;57706;56.326;43.882;2022-11-20T09:16:55;101352.72;;;-4.26;61.39
70302;BME280;57706;56.326;43.882;2022-11-20T09:19:21;101366.78;;;-4.08;61.86
70302;BME280;57706;56.326;43.882;2022-11-20T09:21:48;101363.22;;;-4.04;61.69
70302;BME280;57706;56.326;43.882;2022-11-20T09:24:14;101364.72;;;-3.97;62.21
70302;BME280;57706;56.326;43.882;2022-11-20T09:27:01;101367.75;;;-4.12;60.34
70302;BME280;57706;56.326;43.882;2022-11-20T09:29:27;101351.91;;;-4.27;59.36
70302;BME280;57706;56.326;43.882;2022-11-20T09:31:53;101355.16;;;-4.22;61.24
70302;BME280;57706;56.326;43.882;2022-11-20T09:34:19;101354.63;;;-4.03;62.36
70302;BME280;57706;56.326;43.882;2022-11-20T09:36:44;101352.41;;;-4.14;61.33
70302;BME280;57706;56.326;43.882;2022-11-20T09:39:10;101351.06;;;-3.97;61.87
70302;BME280;57706;56.326;43.882;2022-11-20T09:42:03;101341.44;;;-4.52;58.87
70302;BME280;57706;56.326;43.882;2022-11-20T09:45:02;101335.91;;;-4.37;60.48
70302;BME280;57706;56.326;43.882;2022-11-20T09:50:38;101331.66;;;-4.38;59.22
70302;BME280;57706;56.326;43.882;2022-11-20T09:53:18;101341.31;;;-4.48;59.97
70302;BME280;57706;56.326;43.882;2022-11-20T09:55:49;101345.06;;;-4.28;61.06
70302;BME280;57706;56.326;43.882;2022-11-20T09:58:31;101344.81;;;-4.19;60.71
70302;BME280;57706;56.326;43.882;2022-11-20T10:01:10;101355.00;;;-4.16;60.85
70302;BME280;57706;56.326;43.882;2022-11-20T10:06:12;101334.78;;;-4.28;61.05
70302;BME280;57706;56.326;43.882;2022-11-20T10:08:43;101331.25;;;-4.24;59.87
70302;BME280;57706;56.326;43.882;2022-11-20T10:11:16;101328.16;;;-4.35;58.71
70302;BME280;57706;56.326;43.882;2022-11-20T10:17:03;101345.25;;;-4.34;59.02
70302;BME280;57706;56.326;43.882;2022-11-20T10:20:17;101348.91;;;-4.43;58.95
70302;BME280;57706;56.326;43.882;2022-11-20T10:24:56;101351.94;;;-4.60;61.00
70302;BME280;57706;56.326;43.882;2022-11-20T10:30:18;101340.22;;;-4.71;59.73
70302;BME280;57706;56.326;43.882;2022-11-20T10:32:47;101350.72;;;-4.80;59.78
70302;BME280;57706;56.326;43.882;2022-11-20T10:37:47;101352.72;;;-4.91;61.35
70302;BME280;57706;56.326;43.882;2022-11-20T10:40:40;101355.28;;;-4.91;59.06
70302;BME280;57706;56.326;43.882;2022-11-20T10:43:22;101365.53;;;-4.91;59.75
70302;BME280;57706;56.326;43.882;2022-11-20T10:48:25;101355.53;;;-4.67;61.29
70302;BME280;57706;56.326;43.882;2022-11-20T10:51:47;101344.41;;;-4.66;60.85
70302;BME280;57706;56.326;43.882;2022-11-20T10:54:06;101338.38;;;-4.99;59.58
70302;BME280;57706;56.326;43.882;2022-11-20T10:56:41;101340.28;;;-5.07;60.94
70302;BME280;57706;56.326;43.882;2022-11-20T10:59:35;101347.22;;;-5.47;62.66
70302;BME280;57706;56.326;43.882;2022-11-20T11:02:15;101345.19;;;-5.34;62.18
70302;BME280;57706;56.326;43.882;2022-11-20T11:04:52;101353.66;;;-5.30;62.70
70302;BME280;57706;56.326;43.882;2022-11-20T11:07:38;101352.44;;;-5.15;62.56
70302;BME280;57706;56.326;43.882;2022-11-20T11:12:43;101354.16;;;-4.81;62.93
70302;BME280;57706;56.326;43.882;2022-11-20T11:15:15;101349.41;;;-4.62;62.91
70302;BME280;57706;56.326;43.882;2022-11-20T11:17:50;101346.63;;;-4.54;62.64
70302;BME280;57706;56.326;43.882;2022-11-20T11:20:18;101335.06;;;-4.37;62.38
70302;BME280;57706;56.326;43.882;2022-11-20T11:27:55;101322.19;;;-4.36;62.09
70302;BME280;57706;56.326;43.882;2022-11-20T11:30:23;101320.06;;;-4.85;61.28
70302;BME280;57706;56.326;43.882;2022-11-20T11:32:50;101325.69;;;-4.72;61.81
70302;BME280;57706;56.326;43.882;2022-11-20T11:35:25;101342.13;;;-4.79;61.30
70302;BME280;57706;56.326;43.882;2022-11-20T11:38:01;101344.03;;;-4.86;62.11
70302;BME280;57706;56.326;43.882;2022-11-20T11:40:28;101358.81;;;-5.32;60.93
70302;BME280;57706;56.326;43.882;2022-11-20T11:42:59;101354.25;;;-5.20;61.09
70302;BME280;57706;56.326;43.882;2022-11-20T11:45:25;101358.88;;;-4.99;62.65
70302;BME280;57706;56.326;43.882;2022-11-20T11:47:54;101352.44;;;-4.80;62.93
70302;BME280;57706;56.326;43.882;2022-11-20T11:50:26;101357.13;;;-5.33;61.56
70302;BME280;57706;56.326;43.882;2022-11-20T11:53:07;101360.34;;;-5.25;63.14
70302;BME280;57706;56.326;43.882;2022-11-20T11:58:30;101369.88;;;-4.93;62.02
70302;BME280;57706;56.326;43.882;2022-11-20T12:01:14;101366.19;;;-5.19;61.23
70302;BME280;57706;56.326;43.882;2022-11-20T12:03:44;101362.63;;;-5.12;63.92
70302;BME280;57706;56.326;43.882;2022-11-20T12:06:16;101362.25;;;-4.97;64.08
70302;BME280;57706;56.326;43.882;2022-11-20T12:16:42;101381.06;;;-4.98;63.50
70302;BME280;57706;56.326;43.882;2022-11-20T12:19:11;101377.56;;;-4.93;64.33
70302;BME280;57706;56.326;43.882;2022-11-20T12:22:49;101381.56;;;-4.81;65.14
70302;BME280;57706;56.326;43.882;2022-11-20T12:30:03;101406.50;;;-4.88;64.48
70302;BME280;57706;56.326;43.882;2022-11-20T12:32:55;101398.81;;;-4.88;64.98
70302;BME280;57706;56.326;43.882;2022-11-20T12:56:18;101404.03;;;-4.93;65.99
70302;BME280;57706;56.326;43.882;2022-11-20T13:01:24;101407.63;;;-5.00;66.37
70302;BME280;57706;56.326;43.882;2022-11-20T13:04:32;101414.59;;;-5.05;65.86
70302;BME280;57706;56.326;43.882;2022-11-20T13:07:02;101411.84;;;-4.98;66.44
70302;BME280;57706;56.326;43.882;2022-11-20T13:09:29;101407.53;;;-4.95;65.75
70302;BME280;57706;56.326;43.882;2022-11-20T13:19:37;101410.16;;;-5.35;64.94
70302;BME280;57706;56.326;43.882;2022-11-20T13:22:04;101400.50;;;-5.23;66.66
70302;BME280;57706;56.326;43.882;2022-11-20T13:24:31;101414.72;;;-5.10;66.64
70302;BME280;57706;56.326;43.882;2022-11-20T13:29:42;101420.66;;;-5.08;66.78
70302;BME280;57706;56.326;43.882;2022-11-20T13:32:20;101420.13;;;-5.22;65.63
70302;BME280;57706;56.326;43.882;2022-11-20T13:35:00;101415.84;;;-5.22;65.03
70302;BME280;57706;56.326;43.882;2022-11-20T13:37:34;101412.16;;;-5.10;66.97
70302;BME280;57706;56.326;43.882;2022-11-20T13:43:04;101431.38;;;-5.30;64.67
70302;BME280;57706;56.326;43.882;2022-11-20T13:45:31;101421.91;;;-5.26;66.05
70302;BME280;57706;56.326;43.882;2022-11-20T13:48:02;101433.91;;;-5.27;66.20
70302;BME280;57706;56.326;43.882;2022-11-20T13:50:39;101439.81;;;-5.25;65.82
70302;BME280;57706;56.326;43.882;2022-11-20T13:53:31;101451.97;;;-5.33;64.97
70302;BME280;57706;56.326;43.882;2022-11-20T14:01:54;101441.19;;;-5.09;65.74
70302;BME280;57706;56.326;43.882;2022-11-20T14:04:28;101428.97;;;-4.98;67.40
70302;BME280;57706;56.326;43.882;2022-11-20T14:06:56;101415.75;;;-5.17;65.84
70302;BME280;57706;56.326;43.882;2022-11-20T14:09:31;101413.88;;;-5.12;67.03
70302;BME280;57706;56.326;43.882;2022-11-20T14:11:57;101421.00;;;-5.23;66.16
70302;BME280;57706;56.326;43.882;2022-11-20T14:14:25;101429.44;;;-5.18;66.69
70302;BME280;57706;56.326;43.882;2022-11-20T14:16:53;101437.84;;;-5.13;66.99
70302;BME280;57706;56.326;43.882;2022-11-20T14:19:30;101424.53;;;-5.29;65.17
70302;BME280;57706;56.326;43.882;2022-11-20T14:22:21;101435.03;;;-5.40;65.70
70302;BME280;57706;56.326;43.882;2022-11-20T14:27:41;101433.00;;;-5.26;65.39
70302;BME280;57706;56.326;43.882;2022-11-20T14:30:20;101445.53;;;-5.13;67.18
70302;BME280;57706;56.326;43.882;2022-11-20T14:32:47;101437.78;;;-5.10;66.51